createdAt,value
2022-08-07T00:00:28.065Z,0.80
2022-08-07T00:02:57.089Z,0.52
2022-08-07T00:05:26.220Z,0.70
2022-08-07T00:07:58.192Z,0.82
2022-08-07T00:10:30.658Z,0.90
2022-08-07T00:13:02.126Z,0.70
2022-08-07T00:15:35.873Z,0.80
2022-08-07T00:18:09.105Z,0.70
2022-08-07T00:20:49.393Z,0.70
2022-08-07T00:23:21.083Z,0.70
2022-08-07T00:25:58.121Z,1.00
2022-08-07T00:28:33.180Z,0.88
2022-08-07T00:31:05.972Z,0.70
2022-08-07T00:33:35.598Z,0.65
2022-08-07T00:36:04.600Z,0.68
2022-08-07T00:38:36.670Z,0.60
2022-08-07T00:41:05.795Z,0.70
2022-08-07T00:43:59.338Z,0.90
2022-08-07T00:46:27.343Z,0.60
2022-08-07T00:48:55.902Z,0.60
2022-08-07T00:51:24.362Z,0.70
2022-08-07T00:54:15.097Z,0.90
2022-08-07T00:56:49.817Z,1.27
2022-08-07T00:59:20.308Z,1.10
2022-08-07T01:02:06.315Z,1.10
2022-08-07T01:04:43.181Z,1.30
2022-08-07T01:07:12.986Z,1.10
2022-08-07T01:10:07.236Z,0.90
2022-08-07T01:12:32.617Z,1.10
2022-08-07T01:15:04.141Z,0.80
2022-08-07T01:17:33.417Z,0.90
2022-08-07T01:20:04.880Z,1.00
2022-08-07T01:22:36.595Z,0.90
2022-08-07T01:25:40.268Z,0.80
2022-08-07T01:27:54.580Z,0.80
2022-08-07T01:30:27.236Z,0.88
2022-08-07T01:32:58.208Z,1.00
2022-08-07T01:35:26.949Z,0.73
2022-08-07T01:38:24.661Z,0.73
2022-08-07T01:40:56.444Z,0.65
2022-08-07T01:43:26.028Z,0.70
2022-08-07T01:45:55.264Z,1.05
2022-08-07T01:48:30.418Z,0.77
2022-08-07T01:51:24.408Z,0.70
2022-08-07T01:54:09.402Z,0.60
2022-08-07T01:56:49.481Z,0.70
2022-08-07T01:59:22.153Z,0.60
2022-08-07T02:02:02.360Z,0.73
2022-08-07T02:04:34.397Z,0.70
2022-08-07T02:07:04.928Z,0.70
2022-08-07T02:09:52.996Z,0.60
2022-08-07T02:12:29.340Z,0.80
2022-08-07T02:15:00.971Z,0.70
2022-08-07T02:17:31.820Z,0.77
2022-08-07T02:20:09.745Z,0.63
2022-08-07T02:22:46.405Z,0.70
2022-08-07T02:25:18.337Z,0.93
2022-08-07T02:27:52.334Z,0.63
2022-08-07T02:30:21.828Z,0.90
2022-08-07T02:33:03.804Z,0.90
2022-08-07T02:36:30.864Z,0.75
2022-08-07T02:38:31.968Z,0.60
2022-08-07T02:41:03.712Z,0.70
2022-08-07T02:43:33.238Z,0.80
2022-08-07T02:46:02.856Z,0.60
2022-08-07T02:48:32.294Z,0.60
2022-08-07T02:51:06.095Z,0.80
2022-08-07T02:53:38.806Z,0.70
2022-08-07T02:56:21.116Z,0.73
2022-08-07T02:58:54.083Z,0.68
2022-08-07T03:01:35.387Z,0.65
2022-08-07T03:04:07.172Z,0.70
2022-08-07T03:06:36.770Z,0.68
2022-08-07T03:09:11.051Z,0.80
2022-08-07T03:11:52.691Z,0.80
2022-08-07T03:14:27.729Z,0.60
2022-08-07T03:16:57.135Z,0.70
2022-08-07T03:19:28.957Z,0.90
2022-08-07T03:22:06.886Z,1.00
2022-08-07T03:24:36.771Z,0.85
2022-08-07T03:27:09.021Z,0.63
2022-08-07T03:29:44.633Z,0.68
2022-08-07T03:32:20.334Z,0.90
2022-08-07T03:35:16.617Z,0.82
2022-08-07T03:37:46.181Z,0.98
2022-08-07T03:40:23.399Z,0.95
2022-08-07T03:42:57.605Z,0.93
2022-08-07T03:45:30.977Z,0.80
2022-08-07T03:48:00.611Z,1.13
2022-08-07T03:50:30.065Z,1.00
2022-08-07T03:53:00.097Z,0.65
2022-08-07T03:55:52.979Z,0.80
2022-08-07T03:59:06.775Z,0.70
2022-08-07T04:01:11.182Z,1.20
2022-08-07T04:03:53.586Z,0.75
2022-08-07T04:06:38.067Z,1.00
2022-08-07T04:09:08.523Z,0.77
2022-08-07T04:12:25.143Z,0.95
2022-08-07T04:14:38.485Z,1.13
2022-08-07T04:17:19.966Z,1.40
2022-08-07T04:19:52.423Z,1.23
2022-08-07T04:22:28.886Z,1.55
2022-08-07T04:24:58.764Z,1.10
2022-08-07T04:27:35.795Z,1.10
2022-08-07T04:30:21.593Z,0.93
2022-08-07T04:32:58.895Z,1.30
2022-08-07T04:35:35.207Z,0.90
2022-08-07T04:38:07.695Z,0.98
2022-08-07T04:40:51.378Z,1.15
2022-08-07T04:43:21.860Z,1.10
2022-08-07T04:46:25.683Z,1.30
2022-08-07T04:48:59.369Z,1.63
2022-08-07T04:51:35.497Z,1.00
2022-08-07T04:54:09.552Z,1.52
2022-08-07T04:58:15.998Z,1.50
2022-08-07T05:00:12.592Z,1.60
2022-08-07T05:02:28.657Z,1.50
2022-08-07T05:05:00.799Z,1.02
2022-08-07T05:07:37.030Z,1.20
2022-08-07T05:10:19.684Z,1.27
2022-08-07T05:12:55.246Z,1.20
2022-08-07T05:15:28.295Z,1.50
2022-08-07T05:18:00.920Z,1.38
2022-08-07T05:20:34.393Z,1.00
2022-08-07T05:23:05.978Z,1.27
2022-08-07T05:26:10.738Z,1.20
2022-08-07T05:28:35.633Z,1.73
2022-08-07T05:31:04.526Z,1.33
2022-08-07T05:33:36.844Z,1.42
2022-08-07T05:36:06.561Z,1.33
2022-08-07T05:39:01.419Z,1.45
2022-08-07T05:41:24.214Z,1.48
2022-08-07T05:44:13.070Z,1.60
2022-08-07T05:46:42.948Z,1.33
2022-08-07T05:49:13.304Z,1.52
2022-08-07T05:51:46.471Z,1.25
2022-08-07T05:54:44.143Z,1.40
2022-08-07T05:57:04.993Z,1.80
2022-08-07T05:59:38.998Z,1.38
2022-08-07T06:02:29.048Z,1.58
2022-08-07T06:05:01.644Z,1.70
2022-08-07T06:08:09.297Z,1.65
2022-08-07T06:10:21.199Z,1.50
2022-08-07T06:12:51.161Z,1.60
2022-08-07T06:15:20.505Z,1.67
2022-08-07T06:17:53.635Z,1.45
2022-08-07T06:20:25.679Z,1.63
2022-08-07T06:23:02.305Z,1.55
2022-08-07T06:25:54.492Z,1.30
2022-08-07T06:28:27.358Z,1.23
2022-08-07T06:30:58.343Z,1.83
2022-08-07T06:33:29.682Z,1.40
2022-08-07T06:36:11.885Z,1.60
2022-08-07T06:38:51.620Z,1.73
2022-08-07T06:42:00.677Z,1.70
2022-08-07T06:44:19.522Z,1.35
2022-08-07T06:46:53.638Z,1.70
2022-08-07T06:49:50.949Z,1.60
2022-08-07T06:52:31.556Z,1.73
2022-08-07T06:55:31.625Z,1.70
2022-08-07T06:57:57.078Z,1.92
2022-08-07T07:00:26.544Z,1.60
2022-08-07T07:02:58.223Z,1.65
2022-08-07T07:06:04.074Z,1.90
2022-08-07T07:08:25.762Z,1.55
2022-08-07T07:10:56.673Z,1.88
2022-08-07T07:13:56.373Z,1.75
2022-08-07T07:16:19.967Z,1.60
2022-08-07T07:18:50.568Z,2.00
2022-08-07T07:21:21.085Z,1.63
2022-08-07T07:24:08.775Z,1.75
2022-08-07T07:26:41.328Z,1.73
2022-08-07T07:29:39.277Z,1.80
2022-08-07T07:32:14.320Z,1.50
2022-08-07T07:34:44.194Z,1.55
2022-08-07T07:37:45.192Z,1.45
2022-08-07T07:40:14.677Z,1.70
2022-08-07T07:42:51.007Z,1.15
2022-08-07T07:45:24.593Z,1.80
2022-08-07T07:48:12.919Z,1.73
2022-08-07T07:51:02.520Z,1.27
2022-08-07T07:53:42.989Z,1.50
2022-08-07T07:56:30.323Z,1.35
2022-08-07T07:59:01.713Z,1.30
2022-08-07T08:02:01.775Z,1.33
2022-08-07T08:04:25.505Z,1.60
2022-08-07T08:06:55.283Z,1.83
2022-08-07T08:09:29.556Z,1.45
2022-08-07T08:12:05.148Z,1.30
2022-08-07T08:14:36.392Z,1.42
2022-08-07T08:17:56.418Z,1.15
2022-08-07T08:20:18.691Z,1.10
2022-08-07T08:23:02.488Z,1.88
2022-08-07T08:25:49.931Z,1.50
2022-08-07T08:28:24.032Z,1.40
2022-08-07T08:31:07.248Z,1.13
2022-08-07T08:33:36.949Z,1.20
2022-08-07T08:36:07.512Z,0.90
2022-08-07T08:38:41.226Z,1.10
2022-08-07T08:41:13.080Z,1.50
2022-08-07T08:43:50.538Z,1.50
2022-08-07T08:46:34.192Z,1.02
2022-08-07T08:49:09.826Z,1.30
2022-08-07T08:52:00.782Z,1.40
2022-08-07T08:54:30.377Z,1.20
2022-08-07T08:57:00.070Z,1.30
2022-08-07T08:59:42.257Z,1.40
2022-08-07T09:02:36.486Z,1.10
2022-08-07T09:05:31.977Z,1.30
2022-08-07T09:08:11.846Z,1.20
2022-08-07T09:10:48.925Z,1.15
2022-08-07T09:13:37.044Z,1.30
2022-08-07T09:16:21.621Z,1.08
2022-08-07T09:19:07.298Z,1.27
2022-08-07T09:24:27.458Z,1.45
2022-08-07T09:24:59.072Z,1.50
2022-08-07T09:27:31.828Z,1.40
2022-08-07T09:30:25.514Z,1.70
2022-08-07T09:33:24.348Z,1.88
2022-08-07T09:36:03.403Z,1.30
2022-08-07T09:38:38.889Z,1.90
2022-08-07T09:41:11.511Z,2.20
2022-08-07T09:44:06.247Z,1.83
2022-08-07T09:47:50.042Z,1.50
2022-08-07T09:49:59.653Z,1.60
2022-08-07T09:52:35.370Z,1.30
2022-08-07T09:55:28.808Z,1.63
2022-08-07T09:58:14.628Z,1.70
2022-08-07T10:00:53.085Z,1.55
2022-08-07T10:04:07.261Z,1.50
2022-08-07T10:06:39.863Z,1.27
2022-08-07T10:09:42.530Z,1.23
2022-08-07T10:12:26.311Z,1.65
2022-08-07T10:15:18.655Z,1.55
2022-08-07T10:18:01.013Z,1.20
2022-08-07T10:20:39.729Z,1.40
2022-08-07T10:24:04.767Z,1.10
2022-08-07T10:26:15.556Z,1.30
2022-08-07T10:28:57.724Z,1.42
2022-08-07T10:31:38.510Z,1.52
2022-08-07T10:34:18.355Z,1.20
2022-08-07T10:37:03.849Z,1.20
2022-08-07T10:40:02.565Z,1.40
2022-08-07T10:42:36.752Z,1.17
2022-08-07T10:45:12.470Z,1.55
2022-08-07T10:47:54.423Z,1.30
2022-08-07T10:50:26.510Z,1.50
2022-08-07T10:53:05.155Z,1.35
2022-08-07T10:55:43.783Z,1.40
2022-08-07T10:58:17.836Z,1.80
2022-08-07T11:01:11.827Z,1.10
2022-08-07T11:03:53.009Z,1.30
2022-08-07T11:06:30.781Z,1.52
2022-08-07T11:09:01.945Z,1.58
2022-08-07T11:11:35.651Z,1.35
2022-08-07T11:14:43.941Z,1.33
2022-08-07T11:17:01.965Z,1.30
2022-08-07T11:19:33.072Z,1.48
2022-08-07T11:22:18.927Z,1.48
2022-08-07T11:25:06.474Z,1.25
2022-08-07T11:28:03.125Z,1.35
2022-08-07T11:30:41.973Z,1.50
2022-08-07T11:33:14.190Z,1.48
2022-08-07T11:35:59.448Z,1.35
2022-08-07T11:38:33.723Z,1.27
2022-08-07T11:41:05.144Z,1.30
2022-08-07T11:43:54.958Z,1.10
2022-08-07T11:46:38.017Z,1.40
2022-08-07T11:49:50.751Z,1.10
2022-08-07T11:52:29.302Z,1.60
2022-08-07T11:55:19.085Z,1.40
2022-08-07T11:58:04.614Z,1.35
2022-08-07T12:01:00.199Z,1.35
2022-08-07T12:03:46.836Z,1.50
2022-08-07T12:06:36.944Z,1.20
2022-08-07T12:09:16.596Z,1.33
2022-08-07T12:12:10.294Z,1.40
2022-08-07T12:14:55.267Z,1.35
2022-08-07T12:17:35.062Z,1.50
2022-08-07T12:20:14.001Z,1.40
2022-08-07T12:23:00.933Z,1.17
2022-08-07T12:26:21.496Z,0.90
2022-08-07T12:28:52.921Z,1.30
2022-08-07T12:31:26.006Z,1.40
2022-08-07T12:34:16.155Z,1.10
2022-08-07T12:36:49.591Z,1.38
2022-08-07T12:39:42.807Z,1.00
2022-08-07T12:42:13.123Z,1.20
2022-08-07T12:44:42.898Z,1.25
2022-08-07T12:47:21.385Z,1.00
2022-08-07T12:50:34.511Z,1.30
2022-08-07T12:52:56.949Z,0.80
2022-08-07T12:55:41.132Z,1.10
2022-08-07T12:58:11.845Z,1.05
2022-08-07T13:00:50.004Z,1.20
2022-08-07T13:04:00.547Z,1.15
2022-08-07T13:06:29.386Z,1.33
2022-08-07T13:09:02.126Z,1.35
2022-08-07T13:12:01.867Z,1.10
2022-08-07T13:14:36.664Z,1.33
2022-08-07T13:17:07.812Z,1.13
2022-08-07T13:19:50.814Z,1.20
2022-08-07T13:22:28.381Z,1.00
2022-08-07T13:25:00.174Z,1.38
2022-08-07T13:27:33.303Z,1.30
2022-08-07T13:30:41.186Z,1.15
2022-08-07T13:34:14.877Z,1.00
2022-08-07T13:36:05.557Z,1.08
2022-08-07T13:38:41.973Z,0.90
2022-08-07T13:41:15.818Z,1.45
2022-08-07T13:43:52.730Z,1.20
2022-08-07T13:46:28.245Z,1.33
2022-08-07T13:49:02.476Z,1.35
2022-08-07T13:52:22.598Z,1.00
2022-08-07T13:54:23.682Z,1.10
2022-08-07T13:56:56.254Z,1.02
2022-08-07T13:59:31.743Z,1.13
2022-08-07T14:02:07.805Z,0.98
2022-08-07T14:04:50.115Z,1.10
2022-08-07T14:07:22.931Z,1.17
2022-08-07T14:10:12.386Z,1.40
2022-08-07T14:12:55.191Z,1.00
2022-08-07T14:15:32.100Z,1.30
2022-08-07T14:18:24.467Z,1.10
2022-08-07T14:20:56.020Z,1.00
2022-08-07T14:23:59.382Z,1.02
2022-08-07T14:26:30.409Z,0.95
2022-08-07T14:29:10.653Z,1.05
2022-08-07T14:31:56.559Z,0.90
2022-08-07T14:34:30.006Z,1.05
2022-08-07T14:37:02.957Z,0.93
2022-08-07T14:40:18.194Z,1.10
2022-08-07T14:42:31.250Z,1.08
2022-08-07T14:45:21.662Z,0.90
2022-08-07T14:47:50.105Z,1.00
2022-08-07T14:50:20.673Z,0.90
2022-08-07T14:52:50.215Z,1.40
2022-08-07T14:55:19.267Z,0.80
2022-08-07T14:57:58.598Z,0.88
2022-08-07T15:00:30.886Z,0.93
2022-08-07T15:03:00.295Z,1.08
2022-08-07T15:05:55.225Z,1.15
2022-08-07T15:08:34.379Z,1.20
2022-08-07T15:11:05.446Z,0.82
2022-08-07T15:13:37.257Z,0.93
2022-08-07T15:16:11.139Z,1.00
2022-08-07T15:18:45.425Z,1.00
2022-08-07T15:21:58.561Z,0.98
2022-08-07T15:26:59.260Z,0.90
2022-08-07T15:30:09.384Z,1.08
2022-08-07T15:35:17.274Z,0.82
2022-08-07T15:38:17.962Z,0.90
2022-08-07T15:41:00.391Z,1.20
2022-08-07T15:43:53.343Z,1.15
2022-08-07T15:46:37.617Z,1.10
2022-08-07T15:49:12.798Z,1.10
2022-08-07T15:54:27.829Z,1.08
2022-08-07T15:57:01.167Z,1.05
2022-08-07T15:59:39.697Z,1.23
2022-08-07T16:02:15.990Z,1.42
2022-08-07T16:04:48.577Z,1.17
2022-08-07T16:08:32.159Z,1.00
2022-08-07T16:10:14.824Z,1.30
2022-08-07T16:13:01.088Z,1.23
2022-08-07T16:15:55.681Z,1.33
2022-08-07T16:18:49.523Z,1.25
2022-08-07T16:21:57.142Z,1.10
2022-08-07T16:24:34.851Z,1.33
2022-08-07T16:27:18.362Z,1.10
2022-08-07T16:30:09.892Z,1.38
2022-08-07T16:32:54.294Z,1.17
2022-08-07T16:35:58.480Z,1.40
2022-08-07T16:39:00.151Z,1.27
2022-08-07T16:41:41.050Z,1.27
2022-08-07T16:44:53.759Z,1.15
2022-08-07T16:47:42.268Z,1.33
2022-08-07T16:50:36.290Z,1.30
2022-08-07T16:54:02.672Z,1.30
2022-08-07T16:56:20.621Z,1.25
2022-08-07T16:59:14.234Z,1.10
2022-08-07T17:01:51.519Z,1.17
2022-08-07T17:04:27.240Z,1.15
2022-08-07T17:07:04.109Z,1.15
2022-08-07T17:10:06.313Z,1.63
2022-08-07T17:12:38.776Z,1.15
2022-08-07T17:15:18.464Z,1.33
2022-08-07T17:17:54.412Z,1.05
2022-08-07T17:20:30.895Z,1.65
2022-08-07T17:23:02.930Z,1.38
2022-08-07T17:25:47.523Z,1.10
2022-08-07T17:28:23.101Z,1.50
2022-08-07T17:30:57.778Z,1.38
2022-08-07T17:34:09.855Z,1.30
2022-08-07T17:36:21.105Z,1.17
2022-08-07T17:38:58.929Z,2.30
2022-08-07T17:42:04.785Z,1.17
2022-08-07T17:44:45.263Z,1.50
2022-08-07T17:47:38.063Z,1.30
2022-08-07T17:50:11.526Z,1.73
2022-08-07T17:52:49.635Z,1.30
2022-08-07T17:56:00.635Z,1.27
2022-08-07T17:58:30.022Z,1.25
2022-08-07T18:00:59.924Z,1.40
2022-08-07T18:04:04.537Z,1.38
2022-08-07T18:06:36.939Z,1.30
2022-08-07T18:09:08.515Z,1.30
2022-08-07T18:12:06.355Z,1.13
2022-08-07T18:14:37.346Z,1.63
2022-08-07T18:17:10.770Z,1.60
2022-08-07T18:21:12.800Z,1.40
2022-08-07T18:22:34.934Z,1.30
2022-08-07T18:25:19.202Z,1.60
2022-08-07T18:28:33.916Z,1.67
2022-08-07T18:31:06.170Z,1.60
2022-08-07T18:33:55.011Z,1.40
2022-08-07T18:36:33.235Z,2.28
2022-08-07T18:40:05.128Z,1.40
2022-08-07T18:41:59.646Z,1.55
2022-08-07T18:45:39.881Z,2.05
2022-08-07T18:47:44.535Z,1.30
2022-08-07T18:50:39.618Z,1.40
2022-08-07T18:53:16.337Z,1.80
2022-08-07T18:55:56.167Z,1.38
2022-08-07T18:58:38.247Z,1.60
2022-08-07T19:02:32.190Z,1.73
2022-08-07T19:04:09.863Z,1.33
2022-08-07T19:06:51.418Z,1.70
2022-08-07T19:09:55.662Z,1.60
2022-08-07T19:12:18.019Z,1.60
2022-08-07T19:14:52.782Z,1.58
2022-08-07T19:17:59.333Z,2.20
2022-08-07T19:20:29.048Z,1.85
2022-08-07T19:23:17.777Z,1.70
2022-08-07T19:26:22.768Z,1.90
2022-08-07T19:30:56.918Z,2.15
2022-08-07T19:31:58.625Z,2.50
2022-08-07T19:34:32.525Z,1.88
2022-08-07T19:37:10.267Z,1.58
2022-08-07T19:39:57.319Z,2.00
2022-08-07T19:42:31.198Z,2.00
2022-08-07T19:45:08.237Z,2.03
2022-08-07T19:47:41.930Z,1.75
2022-08-07T19:50:43.876Z,1.75
2022-08-07T19:53:02.009Z,2.25
2022-08-07T19:55:57.453Z,1.90
2022-08-07T19:58:28.916Z,2.20
2022-08-07T20:00:59.523Z,1.90
2022-08-07T20:03:35.629Z,2.10
2022-08-07T20:06:06.209Z,2.20
2022-08-07T20:08:39.141Z,2.15
2022-08-07T20:11:10.803Z,2.13
2022-08-07T20:13:44.169Z,1.63
2022-08-07T20:16:32.345Z,1.70
2022-08-07T20:19:04.371Z,1.83
2022-08-07T20:21:47.228Z,2.08
2022-08-07T20:24:20.127Z,2.30
2022-08-07T20:26:52.183Z,1.98
2022-08-07T20:29:48.061Z,2.00
2022-08-07T20:32:22.859Z,1.90
2022-08-07T20:34:56.076Z,1.90
2022-08-07T20:37:29.500Z,2.03
2022-08-07T20:40:02.959Z,2.15
2022-08-07T20:42:33.933Z,2.00
2022-08-07T20:45:04.489Z,2.20
2022-08-07T20:47:56.120Z,2.13
2022-08-07T20:50:28.980Z,2.20
2022-08-07T20:52:59.612Z,2.47
2022-08-07T20:55:32.167Z,2.13
2022-08-07T20:58:15.218Z,1.77
2022-08-07T21:00:52.901Z,2.28
2022-08-07T21:03:23.260Z,2.30
2022-08-07T21:05:56.973Z,2.13
2022-08-07T21:08:36.551Z,2.17
2022-08-07T21:11:10.791Z,2.30
2022-08-07T21:13:44.031Z,2.30
2022-08-07T21:16:33.165Z,2.50
2022-08-07T21:19:02.016Z,1.83
2022-08-07T21:21:33.270Z,4.50
2022-08-07T21:24:23.660Z,2.92
2022-08-07T21:26:57.992Z,2.03
2022-08-07T21:29:33.394Z,2.28
2022-08-07T21:32:47.704Z,2.47
2022-08-07T21:34:55.244Z,2.30
2022-08-07T21:37:31.633Z,2.58
2022-08-07T21:40:23.370Z,2.50
2022-08-07T21:42:58.473Z,2.78
2022-08-07T21:46:07.982Z,2.30
2022-08-07T21:48:28.928Z,2.67
2022-08-07T21:51:06.966Z,2.95
2022-08-07T21:53:46.482Z,2.70
2022-08-07T21:56:39.747Z,2.40
2022-08-07T21:59:15.113Z,2.95
2022-08-07T22:02:11.411Z,2.60
2022-08-07T22:04:37.510Z,2.50
2022-08-07T22:07:07.618Z,2.35
2022-08-07T22:09:38.052Z,2.88
2022-08-07T22:12:32.530Z,2.92
2022-08-07T22:16:39.162Z,2.75
2022-08-07T22:17:57.892Z,2.85
2022-08-07T22:20:29.470Z,2.67
2022-08-07T22:23:01.661Z,3.33
2022-08-07T22:25:37.004Z,2.55
2022-08-07T22:28:30.862Z,2.72
2022-08-07T22:30:59.847Z,3.05
2022-08-07T22:33:53.326Z,2.80
2022-08-07T22:36:28.670Z,3.00
2022-08-07T22:39:01.198Z,3.10
2022-08-07T22:42:03.060Z,2.85
2022-08-07T22:44:26.895Z,2.95
2022-08-07T22:47:17.905Z,2.80
2022-08-07T22:50:04.415Z,3.17
2022-08-07T22:52:45.872Z,3.03
2022-08-07T22:55:30.106Z,2.58
2022-08-07T22:58:16.929Z,2.92
2022-08-07T23:00:50.725Z,3.17
2022-08-07T23:03:31.755Z,2.88
2022-08-07T23:06:30.248Z,3.13
2022-08-07T23:10:06.382Z,2.67
2022-08-07T23:12:07.313Z,3.33
2022-08-07T23:14:39.972Z,2.95
2022-08-07T23:17:24.726Z,3.03
2022-08-07T23:20:40.788Z,3.00
2022-08-07T23:24:06.357Z,2.90
2022-08-07T23:26:19.071Z,2.90
2022-08-07T23:28:59.474Z,2.97
2022-08-07T23:32:49.639Z,3.10
2022-08-07T23:34:43.317Z,3.00
2022-08-07T23:37:32.341Z,3.08
2022-08-07T23:40:16.589Z,3.50
2022-08-07T23:42:53.233Z,3.40
2022-08-07T23:45:49.858Z,3.38
2022-08-07T23:48:28.425Z,3.30
2022-08-07T23:51:01.234Z,3.70
2022-08-07T23:53:51.286Z,3.10
2022-08-07T23:56:23.762Z,3.33
2022-08-07T23:58:58.793Z,3.22
